sensor_id;sensor_type;location;lat;lon;timestamp;P1;durP1;ratioP1;P2;durP2;ratioP2
43771;SDS011;59066;54.782;32.024;2023-02-01T00:00:36;4.50;;;3.25;;
43771;SDS011;59066;54.782;32.024;2023-02-01T00:03:04;4.57;;;2.85;;
43771;SDS011;59066;54.782;32.024;2023-02-01T00:05:32;4.20;;;2.40;;
43771;SDS011;59066;54.782;32.024;2023-02-01T00:07:59;2.70;;;2.08;;
43771;SDS011;59066;54.782;32.024;2023-02-01T00:10:27;4.65;;;2.35;;
43771;SDS011;59066;54.782;32.024;2023-02-01T00:12:54;4.88;;;2.45;;
43771;SDS011;59066;54.782;32.024;2023-02-01T00:15:21;4.88;;;1.88;;
43771;SDS011;59066;54.782;32.024;2023-02-01T00:17:53;3.40;;;2.80;;
43771;SDS011;59066;54.782;32.024;2023-02-01T00:20:21;7.82;;;3.15;;
43771;SDS011;59066;54.782;32.024;2023-02-01T00:22:49;4.88;;;2.65;;
43771;SDS011;59066;54.782;32.024;2023-02-01T00:25:17;4.88;;;2.70;;
43771;SDS011;59066;54.782;32.024;2023-02-01T00:27:48;3.95;;;3.03;;
43771;SDS011;59066;54.782;32.024;2023-02-01T00:30:17;2.90;;;2.25;;
43771;SDS011;59066;54.782;32.024;2023-02-01T00:32:45;6.55;;;3.03;;
43771;SDS011;59066;54.782;32.024;2023-02-01T00:35:12;7.40;;;3.25;;
43771;SDS011;59066;54.782;32.024;2023-02-01T00:37:40;5.60;;;2.85;;
43771;SDS011;59066;54.782;32.024;2023-02-01T00:40:08;4.40;;;3.13;;
43771;SDS011;59066;54.782;32.024;2023-02-01T00:42:35;7.43;;;3.10;;
43771;SDS011;59066;54.782;32.024;2023-02-01T00:45:03;5.90;;;2.88;;
43771;SDS011;59066;54.782;32.024;2023-02-01T00:47:31;5.10;;;2.95;;
43771;SDS011;59066;54.782;32.024;2023-02-01T00:49:58;5.65;;;3.90;;
43771;SDS011;59066;54.782;32.024;2023-02-01T00:52:26;7.07;;;3.47;;
43771;SDS011;59066;54.782;32.024;2023-02-01T00:54:53;7.40;;;3.47;;
43771;SDS011;59066;54.782;32.024;2023-02-01T00:57:21;8.15;;;3.38;;
43771;SDS011;59066;54.782;32.024;2023-02-01T00:59:48;7.88;;;3.75;;
43771;SDS011;59066;54.782;32.024;2023-02-01T01:02:16;4.80;;;3.03;;
43771;SDS011;59066;54.782;32.024;2023-02-01T01:04:43;5.63;;;2.75;;
43771;SDS011;59066;54.782;32.024;2023-02-01T01:07:10;7.30;;;3.33;;
43771;SDS011;59066;54.782;32.024;2023-02-01T01:09:38;5.50;;;3.50;;
43771;SDS011;59066;54.782;32.024;2023-02-01T01:12:05;7.72;;;3.20;;
43771;SDS011;59066;54.782;32.024;2023-02-01T01:14:33;6.35;;;3.58;;
43771;SDS011;59066;54.782;32.024;2023-02-01T01:17:00;9.93;;;3.47;;
43771;SDS011;59066;54.782;32.024;2023-02-01T01:19:28;6.15;;;3.30;;
43771;SDS011;59066;54.782;32.024;2023-02-01T01:21:55;5.07;;;2.78;;
43771;SDS011;59066;54.782;32.024;2023-02-01T01:24:22;6.60;;;3.08;;
43771;SDS011;59066;54.782;32.024;2023-02-01T01:26:50;6.80;;;3.35;;
43771;SDS011;59066;54.782;32.024;2023-02-01T01:29:17;6.45;;;3.60;;
43771;SDS011;59066;54.782;32.024;2023-02-01T01:31:45;7.82;;;3.90;;
43771;SDS011;59066;54.782;32.024;2023-02-01T01:34:12;6.10;;;3.72;;
43771;SDS011;59066;54.782;32.024;2023-02-01T01:36:40;5.68;;;2.53;;
43771;SDS011;59066;54.782;32.024;2023-02-01T01:39:07;5.35;;;3.20;;
43771;SDS011;59066;54.782;32.024;2023-02-01T01:41:34;7.53;;;4.28;;
43771;SDS011;59066;54.782;32.024;2023-02-01T01:47:19;8.55;;;3.35;;
43771;SDS011;59066;54.782;32.024;2023-02-01T01:49:48;6.70;;;4.15;;
43771;SDS011;59066;54.782;32.024;2023-02-01T01:52:17;7.60;;;4.22;;
43771;SDS011;59066;54.782;32.024;2023-02-01T01:54:47;8.20;;;4.70;;
43771;SDS011;59066;54.782;32.024;2023-02-01T01:57:19;7.45;;;4.70;;
43771;SDS011;59066;54.782;32.024;2023-02-01T02:00:00;6.50;;;3.60;;
43771;SDS011;59066;54.782;32.024;2023-02-01T02:02:43;6.25;;;3.80;;
43771;SDS011;59066;54.782;32.024;2023-02-01T02:05:14;6.68;;;4.35;;
43771;SDS011;59066;54.782;32.024;2023-02-01T02:07:43;7.15;;;4.18;;
43771;SDS011;59066;54.782;32.024;2023-02-01T02:10:14;9.20;;;5.28;;
43771;SDS011;59066;54.782;32.024;2023-02-01T02:12:45;7.53;;;5.13;;
43771;SDS011;59066;54.782;32.024;2023-02-01T02:15:14;10.25;;;6.05;;
43771;SDS011;59066;54.782;32.024;2023-02-01T02:23:23;9.35;;;4.55;;
43771;SDS011;59066;54.782;32.024;2023-02-01T02:37:11;9.93;;;4.75;;
43771;SDS011;59066;54.782;32.024;2023-02-01T02:45:41;11.70;;;6.15;;
43771;SDS011;59066;54.782;32.024;2023-02-01T02:48:36;8.98;;;4.60;;
43771;SDS011;59066;54.782;32.024;2023-02-01T02:51:25;13.85;;;5.85;;
43771;SDS011;59066;54.782;32.024;2023-02-01T02:54:17;8.07;;;5.35;;
43771;SDS011;59066;54.782;32.024;2023-02-01T02:57:07;11.38;;;7.07;;
43771;SDS011;59066;54.782;32.024;2023-02-01T02:59:58;12.70;;;7.25;;
43771;SDS011;59066;54.782;32.024;2023-02-01T03:02:47;11.13;;;7.47;;
43771;SDS011;59066;54.782;32.024;2023-02-01T03:05:34;12.15;;;5.93;;
43771;SDS011;59066;54.782;32.024;2023-02-01T03:16:20;14.90;;;9.13;;
43771;SDS011;59066;54.782;32.024;2023-02-01T03:19:16;12.13;;;6.85;;
43771;SDS011;59066;54.782;32.024;2023-02-01T03:21:53;16.92;;;8.65;;
43771;SDS011;59066;54.782;32.024;2023-02-01T03:24:37;10.05;;;5.72;;
43771;SDS011;59066;54.782;32.024;2023-02-01T03:27:09;14.43;;;8.68;;
43771;SDS011;59066;54.782;32.024;2023-02-01T03:29:46;13.18;;;7.35;;
43771;SDS011;59066;54.782;32.024;2023-02-01T03:32:18;13.10;;;7.70;;
43771;SDS011;59066;54.782;32.024;2023-02-01T03:34:46;11.90;;;7.07;;
43771;SDS011;59066;54.782;32.024;2023-02-01T03:40:05;12.25;;;7.30;;
43771;SDS011;59066;54.782;32.024;2023-02-01T03:42:38;13.90;;;7.75;;
43771;SDS011;59066;54.782;32.024;2023-02-01T03:45:12;16.80;;;9.65;;
43771;SDS011;59066;54.782;32.024;2023-02-01T03:47:48;12.13;;;8.77;;
43771;SDS011;59066;54.782;32.024;2023-02-01T03:50:18;13.52;;;7.38;;
43771;SDS011;59066;54.782;32.024;2023-02-01T03:52:52;17.35;;;9.98;;
43771;SDS011;59066;54.782;32.024;2023-02-01T03:55:24;17.20;;;8.95;;
43771;SDS011;59066;54.782;32.024;2023-02-01T03:57:58;14.90;;;9.43;;
43771;SDS011;59066;54.782;32.024;2023-02-01T04:00:33;20.73;;;10.57;;
43771;SDS011;59066;54.782;32.024;2023-02-01T04:03:02;19.25;;;9.65;;
43771;SDS011;59066;54.782;32.024;2023-02-01T04:05:31;17.75;;;10.48;;
43771;SDS011;59066;54.782;32.024;2023-02-01T04:08:02;21.42;;;15.48;;
43771;SDS011;59066;54.782;32.024;2023-02-01T04:10:32;14.40;;;8.40;;
43771;SDS011;59066;54.782;32.024;2023-02-01T04:13:00;18.13;;;9.98;;
43771;SDS011;59066;54.782;32.024;2023-02-01T04:15:27;20.88;;;12.48;;
43771;SDS011;59066;54.782;32.024;2023-02-01T04:17:55;17.13;;;11.27;;
43771;SDS011;59066;54.782;32.024;2023-02-01T04:20:22;17.25;;;10.50;;
43771;SDS011;59066;54.782;32.024;2023-02-01T04:22:50;18.17;;;9.77;;
43771;SDS011;59066;54.782;32.024;2023-02-01T04:25:18;18.23;;;10.93;;
43771;SDS011;59066;54.782;32.024;2023-02-01T04:27:45;19.48;;;10.25;;
43771;SDS011;59066;54.782;32.024;2023-02-01T04:30:13;16.98;;;10.00;;
43771;SDS011;59066;54.782;32.024;2023-02-01T04:32:41;54.08;;;47.33;;
43771;SDS011;59066;54.782;32.024;2023-02-01T04:35:09;19.50;;;10.98;;
43771;SDS011;59066;54.782;32.024;2023-02-01T04:37:36;16.08;;;11.30;;
43771;SDS011;59066;54.782;32.024;2023-02-01T04:40:05;16.40;;;9.13;;
43771;SDS011;59066;54.782;32.024;2023-02-01T04:42:33;14.60;;;7.38;;
43771;SDS011;59066;54.782;32.024;2023-02-01T04:45:02;19.83;;;13.00;;
43771;SDS011;59066;54.782;32.024;2023-02-01T04:47:30;16.80;;;9.75;;
43771;SDS011;59066;54.782;32.024;2023-02-01T04:49:58;17.27;;;11.82;;
43771;SDS011;59066;54.782;32.024;2023-02-01T04:52:25;17.23;;;10.23;;
43771;SDS011;59066;54.782;32.024;2023-02-01T04:54:54;19.98;;;13.70;;
43771;SDS011;59066;54.782;32.024;2023-02-01T04:57:25;23.75;;;14.02;;
43771;SDS011;59066;54.782;32.024;2023-02-01T04:59:52;21.70;;;13.43;;
43771;SDS011;59066;54.782;32.024;2023-02-01T05:02:20;22.48;;;13.30;;
43771;SDS011;59066;54.782;32.024;2023-02-01T05:04:48;23.08;;;11.48;;
43771;SDS011;59066;54.782;32.024;2023-02-01T05:07:15;22.75;;;12.43;;
43771;SDS011;59066;54.782;32.024;2023-02-01T05:09:43;22.27;;;16.15;;
43771;SDS011;59066;54.782;32.024;2023-02-01T05:12:10;18.60;;;10.30;;
43771;SDS011;59066;54.782;32.024;2023-02-01T05:14:56;21.38;;;12.13;;
43771;SDS011;59066;54.782;32.024;2023-02-01T05:17:24;22.63;;;11.65;;
43771;SDS011;59066;54.782;32.024;2023-02-01T05:19:54;20.55;;;13.13;;
43771;SDS011;59066;54.782;32.024;2023-02-01T05:22:21;27.42;;;13.93;;
43771;SDS011;59066;54.782;32.024;2023-02-01T05:24:48;21.35;;;15.23;;
43771;SDS011;59066;54.782;32.024;2023-02-01T05:27:16;21.05;;;10.15;;
43771;SDS011;59066;54.782;32.024;2023-02-01T05:29:43;19.38;;;11.07;;
43771;SDS011;59066;54.782;32.024;2023-02-01T05:32:13;18.80;;;11.48;;
43771;SDS011;59066;54.782;32.024;2023-02-01T05:34:49;17.77;;;11.50;;
43771;SDS011;59066;54.782;32.024;2023-02-01T05:37:16;20.95;;;10.60;;
43771;SDS011;59066;54.782;32.024;2023-02-01T05:39:44;21.65;;;13.32;;
43771;SDS011;59066;54.782;32.024;2023-02-01T05:42:11;17.42;;;10.50;;
43771;SDS011;59066;54.782;32.024;2023-02-01T05:44:40;23.05;;;15.25;;
43771;SDS011;59066;54.782;32.024;2023-02-01T05:47:07;19.35;;;11.20;;
43771;SDS011;59066;54.782;32.024;2023-02-01T05:49:39;20.98;;;13.80;;
43771;SDS011;59066;54.782;32.024;2023-02-01T05:52:06;25.83;;;15.20;;
43771;SDS011;59066;54.782;32.024;2023-02-01T05:54:33;21.85;;;13.50;;
43771;SDS011;59066;54.782;32.024;2023-02-01T05:57:01;22.10;;;15.88;;
43771;SDS011;59066;54.782;32.024;2023-02-01T05:59:29;26.52;;;15.85;;
43771;SDS011;59066;54.782;32.024;2023-02-01T06:01:57;20.02;;;12.27;;
43771;SDS011;59066;54.782;32.024;2023-02-01T06:04:25;25.73;;;16.17;;
43771;SDS011;59066;54.782;32.024;2023-02-01T06:06:53;22.00;;;15.23;;
43771;SDS011;59066;54.782;32.024;2023-02-01T06:09:20;22.58;;;12.90;;
43771;SDS011;59066;54.782;32.024;2023-02-01T06:11:49;25.60;;;17.05;;
43771;SDS011;59066;54.782;32.024;2023-02-01T06:14:17;23.98;;;13.15;;
43771;SDS011;59066;54.782;32.024;2023-02-01T06:16:44;21.90;;;13.95;;
43771;SDS011;59066;54.782;32.024;2023-02-01T06:19:13;19.38;;;10.63;;
43771;SDS011;59066;54.782;32.024;2023-02-01T06:21:41;21.08;;;13.60;;
43771;SDS011;59066;54.782;32.024;2023-02-01T06:24:09;25.90;;;15.90;;
43771;SDS011;59066;54.782;32.024;2023-02-01T06:26:36;22.60;;;10.45;;
43771;SDS011;59066;54.782;32.024;2023-02-01T06:29:06;51.28;;;45.90;;
43771;SDS011;59066;54.782;32.024;2023-02-01T06:31:34;26.67;;;15.85;;
43771;SDS011;59066;54.782;32.024;2023-02-01T06:34:01;25.73;;;12.68;;
43771;SDS011;59066;54.782;32.024;2023-02-01T06:36:30;25.23;;;14.75;;
43771;SDS011;59066;54.782;32.024;2023-02-01T06:38:57;26.17;;;14.90;;
43771;SDS011;59066;54.782;32.024;2023-02-01T06:41:28;23.00;;;12.88;;
43771;SDS011;59066;54.782;32.024;2023-02-01T06:43:59;22.75;;;14.05;;
43771;SDS011;59066;54.782;32.024;2023-02-01T06:46:26;25.13;;;16.02;;
43771;SDS011;59066;54.782;32.024;2023-02-01T06:48:53;25.08;;;15.43;;
43771;SDS011;59066;54.782;32.024;2023-02-01T06:51:25;19.77;;;12.07;;
43771;SDS011;59066;54.782;32.024;2023-02-01T06:53:53;18.85;;;11.52;;
43771;SDS011;59066;54.782;32.024;2023-02-01T06:56:21;22.75;;;12.70;;
43771;SDS011;59066;54.782;32.024;2023-02-01T06:58:48;20.88;;;11.05;;
43771;SDS011;59066;54.782;32.024;2023-02-01T07:01:16;21.58;;;13.90;;
43771;SDS011;59066;54.782;32.024;2023-02-01T07:03:48;24.25;;;13.02;;
43771;SDS011;59066;54.782;32.024;2023-02-01T07:06:20;17.42;;;10.52;;
43771;SDS011;59066;54.782;32.024;2023-02-01T07:08:47;14.23;;;9.30;;
43771;SDS011;59066;54.782;32.024;2023-02-01T07:11:16;22.58;;;13.88;;
43771;SDS011;59066;54.782;32.024;2023-02-01T07:13:45;21.05;;;14.13;;
43771;SDS011;59066;54.782;32.024;2023-02-01T07:16:14;27.73;;;13.82;;
43771;SDS011;59066;54.782;32.024;2023-02-01T07:18:43;18.05;;;11.63;;
43771;SDS011;59066;54.782;32.024;2023-02-01T07:21:11;23.77;;;14.55;;
43771;SDS011;59066;54.782;32.024;2023-02-01T07:23:39;19.60;;;12.85;;
43771;SDS011;59066;54.782;32.024;2023-02-01T07:26:07;16.17;;;10.02;;
43771;SDS011;59066;54.782;32.024;2023-02-01T07:28:39;17.02;;;11.63;;
43771;SDS011;59066;54.782;32.024;2023-02-01T07:31:08;17.10;;;13.20;;
43771;SDS011;59066;54.782;32.024;2023-02-01T07:33:42;17.15;;;13.45;;
43771;SDS011;59066;54.782;32.024;2023-02-01T07:36:11;23.13;;;16.30;;
43771;SDS011;59066;54.782;32.024;2023-02-01T07:38:41;17.40;;;9.95;;
43771;SDS011;59066;54.782;32.024;2023-02-01T07:41:09;14.45;;;8.27;;
43771;SDS011;59066;54.782;32.024;2023-02-01T07:43:37;21.60;;;13.02;;
43771;SDS011;59066;54.782;32.024;2023-02-01T07:46:05;15.32;;;11.10;;
43771;SDS011;59066;54.782;32.024;2023-02-01T07:48:33;20.17;;;12.18;;
43771;SDS011;59066;54.782;32.024;2023-02-01T07:51:05;14.50;;;7.38;;
43771;SDS011;59066;54.782;32.024;2023-02-01T07:53:34;14.13;;;8.02;;
43771;SDS011;59066;54.782;32.024;2023-02-01T07:56:09;14.98;;;11.88;;
43771;SDS011;59066;54.782;32.024;2023-02-01T07:58:38;12.73;;;9.05;;
43771;SDS011;59066;54.782;32.024;2023-02-01T08:01:11;15.10;;;9.13;;
43771;SDS011;59066;54.782;32.024;2023-02-01T08:03:48;15.18;;;10.40;;
43771;SDS011;59066;54.782;32.024;2023-02-01T08:06:17;15.20;;;10.13;;
43771;SDS011;59066;54.782;32.024;2023-02-01T08:08:47;13.75;;;8.60;;
43771;SDS011;59066;54.782;32.024;2023-02-01T08:11:16;14.98;;;9.75;;
43771;SDS011;59066;54.782;32.024;2023-02-01T08:13:44;13.88;;;8.48;;
43771;SDS011;59066;54.782;32.024;2023-02-01T08:16:13;14.75;;;7.93;;
43771;SDS011;59066;54.782;32.024;2023-02-01T08:18:42;22.95;;;13.40;;
43771;SDS011;59066;54.782;32.024;2023-02-01T08:21:14;15.85;;;9.32;;
43771;SDS011;59066;54.782;32.024;2023-02-01T08:23:50;14.93;;;9.18;;
43771;SDS011;59066;54.782;32.024;2023-02-01T08:26:23;10.80;;;6.93;;
43771;SDS011;59066;54.782;32.024;2023-02-01T08:28:57;13.55;;;8.57;;
43771;SDS011;59066;54.782;32.024;2023-02-01T08:31:27;16.67;;;10.73;;
43771;SDS011;59066;54.782;32.024;2023-02-01T08:33:56;16.33;;;11.00;;
43771;SDS011;59066;54.782;32.024;2023-02-01T08:36:26;11.93;;;8.57;;
43771;SDS011;59066;54.782;32.024;2023-02-01T08:38:55;14.32;;;10.70;;
43771;SDS011;59066;54.782;32.024;2023-02-01T08:41:24;17.33;;;10.73;;
43771;SDS011;59066;54.782;32.024;2023-02-01T08:43:54;17.17;;;7.63;;
43771;SDS011;59066;54.782;32.024;2023-02-01T08:46:22;10.32;;;6.43;;
43771;SDS011;59066;54.782;32.024;2023-02-01T08:48:50;12.55;;;7.65;;
43771;SDS011;59066;54.782;32.024;2023-02-01T08:51:19;13.60;;;8.07;;
43771;SDS011;59066;54.782;32.024;2023-02-01T08:53:47;13.65;;;6.72;;
43771;SDS011;59066;54.782;32.024;2023-02-01T08:56:16;13.70;;;9.18;;
43771;SDS011;59066;54.782;32.024;2023-02-01T08:58:45;14.80;;;10.18;;
43771;SDS011;59066;54.782;32.024;2023-02-01T09:01:14;12.55;;;8.05;;
43771;SDS011;59066;54.782;32.024;2023-02-01T09:03:43;10.70;;;6.85;;
43771;SDS011;59066;54.782;32.024;2023-02-01T09:06:13;14.23;;;8.40;;
43771;SDS011;59066;54.782;32.024;2023-02-01T09:08:41;13.15;;;7.47;;
43771;SDS011;59066;54.782;32.024;2023-02-01T09:11:14;12.35;;;7.72;;
43771;SDS011;59066;54.782;32.024;2023-02-01T09:13:43;16.80;;;10.90;;
43771;SDS011;59066;54.782;32.024;2023-02-01T09:16:11;11.30;;;6.00;;
43771;SDS011;59066;54.782;32.024;2023-02-01T09:18:38;13.68;;;7.05;;
43771;SDS011;59066;54.782;32.024;2023-02-01T09:21:11;18.25;;;9.45;;
43771;SDS011;59066;54.782;32.024;2023-02-01T09:23:38;16.45;;;7.57;;
43771;SDS011;59066;54.782;32.024;2023-02-01T09:26:06;12.32;;;7.25;;
43771;SDS011;59066;54.782;32.024;2023-02-01T09:28:34;11.95;;;7.00;;
43771;SDS011;59066;54.782;32.024;2023-02-01T09:31:01;10.77;;;5.53;;
43771;SDS011;59066;54.782;32.024;2023-02-01T09:33:29;14.63;;;8.40;;
43771;SDS011;59066;54.782;32.024;2023-02-01T09:35:57;11.85;;;5.97;;
43771;SDS011;59066;54.782;32.024;2023-02-01T09:38:26;12.50;;;6.82;;
43771;SDS011;59066;54.782;32.024;2023-02-01T09:40:54;9.95;;;4.80;;
43771;SDS011;59066;54.782;32.024;2023-02-01T09:48:59;10.85;;;6.57;;
43771;SDS011;59066;54.782;32.024;2023-02-01T09:51:34;11.30;;;5.95;;
43771;SDS011;59066;54.782;32.024;2023-02-01T09:56:54;9.48;;;4.50;;
43771;SDS011;59066;54.782;32.024;2023-02-01T09:59:49;6.03;;;3.65;;
43771;SDS011;59066;54.782;32.024;2023-02-01T10:02:25;5.10;;;3.30;;
43771;SDS011;59066;54.782;32.024;2023-02-01T10:04:54;10.98;;;4.75;;
43771;SDS011;59066;54.782;32.024;2023-02-01T10:10:23;10.90;;;4.80;;
43771;SDS011;59066;54.782;32.024;2023-02-01T10:13:17;9.23;;;4.55;;
43771;SDS011;59066;54.782;32.024;2023-02-01T10:16:15;7.40;;;3.80;;
43771;SDS011;59066;54.782;32.024;2023-02-01T10:19:01;10.32;;;5.63;;
43771;SDS011;59066;54.782;32.024;2023-02-01T10:24:39;9.45;;;4.72;;
43771;SDS011;59066;54.782;32.024;2023-02-01T10:27:47;6.88;;;3.40;;
43771;SDS011;59066;54.782;32.024;2023-02-01T10:33:07;16.98;;;3.65;;
43771;SDS011;59066;54.782;32.024;2023-02-01T10:35:52;12.93;;;4.20;;
43771;SDS011;59066;54.782;32.024;2023-02-01T10:38:27;6.00;;;3.60;;
43771;SDS011;59066;54.782;32.024;2023-02-01T10:41:01;12.48;;;4.78;;
43771;SDS011;59066;54.782;32.024;2023-02-01T10:43:36;4.30;;;2.88;;
43771;SDS011;59066;54.782;32.024;2023-02-01T10:46:03;6.93;;;3.22;;
43771;SDS011;59066;54.782;32.024;2023-02-01T10:48:31;7.57;;;2.92;;
43771;SDS011;59066;54.782;32.024;2023-02-01T10:56:26;7.78;;;4.32;;
43771;SDS011;59066;54.782;32.024;2023-02-01T10:59:02;5.40;;;2.67;;
43771;SDS011;59066;54.782;32.024;2023-02-01T11:01:34;6.13;;;2.50;;
43771;SDS011;59066;54.782;32.024;2023-02-01T11:04:10;4.85;;;2.85;;
43771;SDS011;59066;54.782;32.024;2023-02-01T11:06:41;11.57;;;3.40;;
43771;SDS011;59066;54.782;32.024;2023-02-01T11:09:18;6.70;;;3.25;;
43771;SDS011;59066;54.782;32.024;2023-02-01T11:16:53;5.80;;;2.97;;
43771;SDS011;59066;54.782;32.024;2023-02-01T11:19:46;6.63;;;3.38;;
43771;SDS011;59066;54.782;32.024;2023-02-01T11:22:23;6.18;;;3.35;;
43771;SDS011;59066;54.782;32.024;2023-02-01T11:24:53;6.80;;;3.38;;
43771;SDS011;59066;54.782;32.024;2023-02-01T11:27:21;7.50;;;3.20;;
43771;SDS011;59066;54.782;32.024;2023-02-01T11:29:56;8.63;;;4.50;;
43771;SDS011;59066;54.782;32.024;2023-02-01T11:32:29;12.55;;;5.68;;
43771;SDS011;59066;54.782;32.024;2023-02-01T11:34:59;7.93;;;3.17;;
43771;SDS011;59066;54.782;32.024;2023-02-01T11:40:00;8.75;;;3.88;;
43771;SDS011;59066;54.782;32.024;2023-02-01T11:42:32;5.85;;;3.05;;
43771;SDS011;59066;54.782;32.024;2023-02-01T11:45:17;5.88;;;2.63;;
43771;SDS011;59066;54.782;32.024;2023-02-01T11:47:47;5.10;;;2.15;;
43771;SDS011;59066;54.782;32.024;2023-02-01T11:50:22;5.97;;;2.38;;
43771;SDS011;59066;54.782;32.024;2023-02-01T12:01:08;8.27;;;3.20;;
43771;SDS011;59066;54.782;32.024;2023-02-01T12:06:51;7.90;;;3.38;;
43771;SDS011;59066;54.782;32.024;2023-02-01T12:25:44;8.43;;;4.90;;
43771;SDS011;59066;54.782;32.024;2023-02-01T12:31:37;9.00;;;2.90;;
43771;SDS011;59066;54.782;32.024;2023-02-01T12:39:49;8.93;;;3.45;;
43771;SDS011;59066;54.782;32.024;2023-02-01T12:43:01;7.43;;;3.17;;
43771;SDS011;59066;54.782;32.024;2023-02-01T12:45:32;3.67;;;2.63;;
43771;SDS011;59066;54.782;32.024;2023-02-01T12:48:08;10.13;;;3.33;;
43771;SDS011;59066;54.782;32.024;2023-02-01T12:50:54;5.78;;;2.50;;
43771;SDS011;59066;54.782;32.024;2023-02-01T12:56:14;10.45;;;3.17;;
43771;SDS011;59066;54.782;32.024;2023-02-01T12:58:51;6.30;;;2.78;;
43771;SDS011;59066;54.782;32.024;2023-02-01T13:01:45;8.98;;;2.67;;
43771;SDS011;59066;54.782;32.024;2023-02-01T13:04:19;4.65;;;2.15;;
43771;SDS011;59066;54.782;32.024;2023-02-01T13:06:56;5.40;;;2.20;;
43771;SDS011;59066;54.782;32.024;2023-02-01T13:09:46;8.60;;;3.75;;
43771;SDS011;59066;54.782;32.024;2023-02-01T13:12:22;11.50;;;4.57;;
43771;SDS011;59066;54.782;32.024;2023-02-01T13:15:19;8.38;;;4.55;;
43771;SDS011;59066;54.782;32.024;2023-02-01T13:17:49;4.85;;;2.60;;
43771;SDS011;59066;54.782;32.024;2023-02-01T13:23:01;6.60;;;3.08;;
43771;SDS011;59066;54.782;32.024;2023-02-01T13:28:10;5.15;;;2.58;;
43771;SDS011;59066;54.782;32.024;2023-02-01T13:30:50;9.60;;;4.00;;
43771;SDS011;59066;54.782;32.024;2023-02-01T13:36:34;14.23;;;4.13;;
43771;SDS011;59066;54.782;32.024;2023-02-01T13:39:30;5.90;;;3.55;;
43771;SDS011;59066;54.782;32.024;2023-02-01T13:42:18;9.65;;;4.03;;
43771;SDS011;59066;54.782;32.024;2023-02-01T13:45:04;7.93;;;4.57;;
43771;SDS011;59066;54.782;32.024;2023-02-01T13:47:40;9.65;;;5.82;;
43771;SDS011;59066;54.782;32.024;2023-02-01T13:50:19;9.10;;;4.20;;
43771;SDS011;59066;54.782;32.024;2023-02-01T13:53:02;9.82;;;3.90;;
43771;SDS011;59066;54.782;32.024;2023-02-01T13:55:45;7.68;;;3.60;;
43771;SDS011;59066;54.782;32.024;2023-02-01T13:58:40;8.70;;;4.43;;
43771;SDS011;59066;54.782;32.024;2023-02-01T14:03:50;7.65;;;3.38;;
43771;SDS011;59066;54.782;32.024;2023-02-01T14:09:54;8.20;;;4.57;;
43771;SDS011;59066;54.782;32.024;2023-02-01T14:12:44;8.90;;;4.40;;
43771;SDS011;59066;54.782;32.024;2023-02-01T14:17:48;5.95;;;3.80;;
43771;SDS011;59066;54.782;32.024;2023-02-01T14:23:11;6.13;;;3.75;;
43771;SDS011;59066;54.782;32.024;2023-02-01T14:25:41;8.15;;;3.50;;
43771;SDS011;59066;54.782;32.024;2023-02-01T14:28:22;6.70;;;2.90;;
43771;SDS011;59066;54.782;32.024;2023-02-01T14:30:54;8.27;;;3.13;;
43771;SDS011;59066;54.782;32.024;2023-02-01T14:33:25;10.18;;;4.07;;
43771;SDS011;59066;54.782;32.024;2023-02-01T14:36:11;8.23;;;4.90;;
43771;SDS011;59066;54.782;32.024;2023-02-01T14:38:47;6.85;;;4.00;;
43771;SDS011;59066;54.782;32.024;2023-02-01T14:41:30;11.90;;;4.20;;
43771;SDS011;59066;54.782;32.024;2023-02-01T14:49:30;4.35;;;3.17;;
43771;SDS011;59066;54.782;32.024;2023-02-01T14:52:02;5.30;;;3.50;;
43771;SDS011;59066;54.782;32.024;2023-02-01T14:54:32;7.03;;;3.50;;
43771;SDS011;59066;54.782;32.024;2023-02-01T14:57:00;7.40;;;2.97;;
43771;SDS011;59066;54.782;32.024;2023-02-01T14:59:29;5.75;;;3.45;;
43771;SDS011;59066;54.782;32.024;2023-02-01T15:02:00;13.60;;;3.75;;
43771;SDS011;59066;54.782;32.024;2023-02-01T15:04:27;7.28;;;4.20;;
43771;SDS011;59066;54.782;32.024;2023-02-01T15:07:09;7.90;;;4.05;;
43771;SDS011;59066;54.782;32.024;2023-02-01T15:09:44;6.80;;;3.60;;
43771;SDS011;59066;54.782;32.024;2023-02-01T15:12:24;8.77;;;3.97;;
43771;SDS011;59066;54.782;32.024;2023-02-01T15:17:51;7.85;;;3.35;;
43771;SDS011;59066;54.782;32.024;2023-02-01T15:20:25;6.32;;;3.00;;
43771;SDS011;59066;54.782;32.024;2023-02-01T15:22:56;7.72;;;4.00;;
43771;SDS011;59066;54.782;32.024;2023-02-01T15:25:32;7.28;;;4.00;;
43771;SDS011;59066;54.782;32.024;2023-02-01T15:28:05;6.95;;;3.83;;
43771;SDS011;59066;54.782;32.024;2023-02-01T15:30:51;7.90;;;3.55;;
43771;SDS011;59066;54.782;32.024;2023-02-01T15:33:39;6.72;;;3.90;;
43771;SDS011;59066;54.782;32.024;2023-02-01T15:38:36;6.03;;;3.50;;
43771;SDS011;59066;54.782;32.024;2023-02-01T15:43:43;6.72;;;3.67;;
43771;SDS011;59066;54.782;32.024;2023-02-01T15:46:19;9.32;;;3.83;;
43771;SDS011;59066;54.782;32.024;2023-02-01T15:48:51;5.43;;;3.60;;
43771;SDS011;59066;54.782;32.024;2023-02-01T15:51:22;10.88;;;5.57;;
43771;SDS011;59066;54.782;32.024;2023-02-01T15:53:55;6.50;;;4.40;;
43771;SDS011;59066;54.782;32.024;2023-02-01T15:56:36;8.20;;;3.78;;
43771;SDS011;59066;54.782;32.024;2023-02-01T15:59:12;7.10;;;3.88;;
43771;SDS011;59066;54.782;32.024;2023-02-01T16:01:44;7.05;;;4.40;;
43771;SDS011;59066;54.782;32.024;2023-02-01T16:04:15;9.77;;;3.78;;
43771;SDS011;59066;54.782;32.024;2023-02-01T16:06:56;9.82;;;4.30;;
43771;SDS011;59066;54.782;32.024;2023-02-01T16:09:37;10.07;;;4.40;;
43771;SDS011;59066;54.782;32.024;2023-02-01T16:14:57;8.30;;;3.72;;
43771;SDS011;59066;54.782;32.024;2023-02-01T16:17:25;8.38;;;5.25;;
43771;SDS011;59066;54.782;32.024;2023-02-01T16:19:53;8.38;;;3.67;;
43771;SDS011;59066;54.782;32.024;2023-02-01T16:22:20;12.05;;;5.72;;
43771;SDS011;59066;54.782;32.024;2023-02-01T16:24:49;10.13;;;4.55;;
43771;SDS011;59066;54.782;32.024;2023-02-01T16:27:16;8.98;;;3.78;;
43771;SDS011;59066;54.782;32.024;2023-02-01T16:29:44;6.78;;;3.80;;
43771;SDS011;59066;54.782;32.024;2023-02-01T16:32:21;7.97;;;3.78;;
43771;SDS011;59066;54.782;32.024;2023-02-01T16:34:49;7.97;;;4.63;;
43771;SDS011;59066;54.782;32.024;2023-02-01T16:37:21;11.68;;;4.55;;
43771;SDS011;59066;54.782;32.024;2023-02-01T16:39:50;9.45;;;4.97;;
43771;SDS011;59066;54.782;32.024;2023-02-01T16:42:18;8.30;;;4.97;;
43771;SDS011;59066;54.782;32.024;2023-02-01T16:44:45;9.48;;;4.60;;
43771;SDS011;59066;54.782;32.024;2023-02-01T16:47:16;8.23;;;4.68;;
43771;SDS011;59066;54.782;32.024;2023-02-01T16:49:48;7.30;;;4.63;;
43771;SDS011;59066;54.782;32.024;2023-02-01T16:52:17;8.45;;;5.93;;
43771;SDS011;59066;54.782;32.024;2023-02-01T16:54:47;8.32;;;5.60;;
43771;SDS011;59066;54.782;32.024;2023-02-01T16:57:16;12.38;;;4.40;;
43771;SDS011;59066;54.782;32.024;2023-02-01T16:59:45;10.50;;;4.85;;
43771;SDS011;59066;54.782;32.024;2023-02-01T17:02:17;6.85;;;4.70;;
43771;SDS011;59066;54.782;32.024;2023-02-01T17:04:49;9.93;;;5.40;;
43771;SDS011;59066;54.782;32.024;2023-02-01T17:07:17;8.45;;;5.25;;
43771;SDS011;59066;54.782;32.024;2023-02-01T17:09:46;8.70;;;4.93;;
43771;SDS011;59066;54.782;32.024;2023-02-01T17:12:24;7.88;;;4.38;;
43771;SDS011;59066;54.782;32.024;2023-02-01T17:14:58;9.25;;;5.28;;